Time;durP1;ratioP1;P1;durP2;ratioP2;P2;SDS_P1;SDS_P2;PMS_P1;PMS_P2;Temp;Humidity;BMP_temperature;BMP_pressure;BME280_temperature;BME280_humidity;BME280_pressure;Samples;Min_cycle;Max_cycle;Signal;HPM_P1;HPM_P2
2022/01/05 00:00:19;;;;;;;8.77;5.93;;;;;;;8.26;67.40;93815.63;4990731;28;20018;-69
2022/01/05 00:02:44;;;;;;;12.40;5.78;;;;;;;8.21;65.90;93821.88;4990976;28;20388;-68
2022/01/05 00:05:10;;;;;;;7.60;4.78;;;;;;;7.85;67.08;93853.38;4991421;28;20022;-69
2022/01/05 00:07:35;;;;;;;7.65;5.65;;;;;;;7.91;66.66;93852.09;4973683;28;20034;-69
2022/01/05 00:10:01;;;;;;;9.40;6.63;;;;;;;7.89;67.30;93833.13;4990626;28;20081;-69
2022/01/05 00:12:26;;;;;;;11.32;7.78;;;;;;;8.61;65.95;93858.63;4991299;28;20022;-69
2022/01/05 00:14:52;;;;;;;8.75;6.10;;;;;;;7.97;67.51;93870.13;4991359;28;20030;-69
2022/01/05 00:17:18;;;;;;;7.90;5.88;;;;;;;7.42;68.90;93892.09;4990838;28;20042;-69
2022/01/05 00:19:44;;;;;;;9.90;6.45;;;;;;;7.49;67.35;93799.00;4972689;28;20026;-68
2022/01/05 00:22:10;;;;;;;10.88;6.78;;;;;;;8.16;66.69;93893.56;4990999;28;20387;-69
2022/01/05 00:24:36;;;;;;;9.90;5.93;;;;;;;7.11;68.22;93820.88;4991138;28;20037;-69
2022/01/05 00:27:03;;;;;;;6.35;4.18;;;;;;;6.88;68.96;93875.03;4991255;28;20018;-69
2022/01/05 00:29:28;;;;;;;6.32;5.00;;;;;;;7.21;68.34;93859.44;4990378;28;20468;-69
2022/01/05 00:31:54;;;;;;;7.57;5.03;;;;;;;7.26;68.84;93870.63;4990664;28;20114;-69
2022/01/05 00:34:19;;;;;;;5.15;3.70;;;;;;;6.97;69.77;93926.03;4991738;28;20030;-69
2022/01/05 00:36:45;;;;;;;7.15;4.05;;;;;;;6.82;69.43;93876.25;4990725;28;20069;-69
2022/01/05 00:39:10;;;;;;;8.13;3.42;;;;;;;6.67;69.37;93902.06;4990196;28;20105;-69
2022/01/05 00:41:36;;;;;;;3.88;2.63;;;;;;;6.42;69.94;93922.03;4991127;28;20054;-69
2022/01/05 00:44:01;;;;;;;3.90;2.70;;;;;;;6.10;70.54;93903.94;4990786;28;20030;-69
2022/01/05 00:46:27;;;;;;;5.75;3.20;;;;;;;6.49;70.66;93935.56;4990910;28;20030;-69
2022/01/05 00:48:52;;;;;;;2.80;1.98;;;;;;;6.17;70.11;93917.47;4973443;28;20026;-70
2022/01/05 00:51:18;;;;;;;3.00;2.53;;;;;;;6.01;71.33;93926.88;4990381;28;20041;-69
2022/01/05 00:53:44;;;;;;;4.95;2.17;;;;;;;6.41;70.91;93931.06;4973495;28;20036;-69
2022/01/05 00:56:09;;;;;;;3.30;2.30;;;;;;;6.42;70.24;93921.28;4990542;28;20062;-69
2022/01/05 00:58:35;;;;;;;2.53;1.40;;;;;;;5.92;70.53;93924.97;4990433;28;20030;-69
2022/01/05 01:01:00;;;;;;;1.45;1.27;;;;;;;6.41;70.44;93930.28;4990222;28;20041;-70
2022/01/05 01:03:28;;;;;;;4.55;2.28;;;;;;;6.67;68.30;93890.72;4991297;28;20038;-70
2022/01/05 01:05:54;;;;;;;4.53;1.90;;;;;;;7.09;67.06;93907.66;4991182;28;20519;-70
2022/01/05 01:08:19;;;;;;;2.25;1.33;;;;;;;5.24;69.75;93857.56;4990839;28;20511;-69
2022/01/05 01:10:46;;;;;;;0.80;0.68;;;;;;;5.73;69.91;93951.56;4990793;28;20066;-69
2022/01/05 01:13:16;;;;;;;0.28;0.28;;;;;;;5.00;71.12;93934.28;4973767;28;20022;-71
2022/01/05 01:15:45;;;;;;;0.80;0.80;;;;;;;5.38;70.32;93926.03;4991676;28;20030;-69
2022/01/05 01:18:11;;;;;;;1.90;1.58;;;;;;;5.99;68.88;93895.50;4995330;28;20436;-70
2022/01/05 01:20:36;;;;;;;1.35;1.05;;;;;;;5.56;69.21;93921.66;4993246;28;20491;-70
2022/01/05 01:23:02;;;;;;;1.33;1.15;;;;;;;5.15;69.90;93868.03;4990353;28;20113;-69
2022/01/05 01:25:27;;;;;;;2.83;1.20;;;;;;;5.90;67.81;93889.38;4991405;28;20034;-70
2022/01/05 01:27:53;;;;;;;1.55;1.27;;;;;;;6.74;65.98;93920.84;4973234;28;20022;-70
2022/01/05 01:30:18;;;;;;;3.35;1.42;;;;;;;6.46;66.73;93906.38;4989653;28;20031;-69
2022/01/05 01:32:43;;;;;;;4.15;2.80;;;;;;;6.08;66.73;93892.88;4990751;28;20070;-69
2022/01/05 01:35:10;;;;;;;2.67;2.33;;;;;;;6.93;65.97;93956.81;4989575;28;20026;-69
2022/01/05 01:37:35;;;;;;;2.40;2.00;;;;;;;6.86;65.19;93895.69;4989824;28;20042;-70
2022/01/05 01:40:02;;;;;;;1.63;1.33;;;;;;;7.48;64.66;93987.97;4989342;28;20023;-69
2022/01/05 01:42:27;;;;;;;2.63;2.38;;;;;;;6.72;64.89;93915.13;4989797;28;20492;-69
2022/01/05 01:44:52;;;;;;;2.75;2.30;;;;;;;7.56;64.37;93979.22;4990075;28;20028;-70
2022/01/05 01:47:18;;;;;;;2.70;2.22;;;;;;;7.49;63.00;93960.41;4989652;28;20038;-69
2022/01/05 01:49:43;;;;;;;4.18;3.00;;;;;;;7.93;63.56;93990.22;4989900;28;20030;-69
2022/01/05 01:52:09;;;;;;;3.40;2.55;;;;;;;8.38;63.04;93979.22;4989966;28;20610;-69
2022/01/05 01:54:35;;;;;;;3.70;2.97;;;;;;;8.34;63.35;93982.50;4989833;28;20030;-69
2022/01/05 01:57:01;;;;;;;5.85;3.47;;;;;;;8.20;63.89;93971.31;4989870;28;20034;-69
2022/01/05 01:59:27;;;;;;;3.50;3.17;;;;;;;8.51;62.36;93957.03;4971809;28;20547;-69
2022/01/05 02:01:54;;;;;;;4.55;3.20;;;;;;;8.70;62.52;93961.91;4989835;28;20114;-69
2022/01/05 02:04:20;;;;;;;4.72;3.83;;;;;;;8.52;62.49;93940.81;4990233;28;20027;-69
2022/01/05 02:06:45;;;;;;;3.67;3.38;;;;;;;8.70;62.75;93920.31;4989535;28;20030;-69
2022/01/05 02:09:11;;;;;;;5.20;3.92;;;;;;;7.87;61.24;93930.59;4989186;28;20022;-69
2022/01/05 02:11:38;;;;;;;3.88;3.45;;;;;;;7.89;62.80;93912.53;4989801;28;20210;-69
2022/01/05 02:14:04;;;;;;;4.35;3.95;;;;;;;8.37;62.79;93932.63;4989617;28;20035;-69
2022/01/05 02:16:32;;;;;;;4.55;3.80;;;;;;;8.41;62.72;93910.47;4992102;28;20507;-68
2022/01/05 02:18:58;;;;;;;3.67;3.05;;;;;;;8.69;61.76;93982.34;4993117;28;20416;-68
2022/01/05 02:21:29;;;;;;;3.80;3.25;;;;;;;8.18;62.22;93951.53;4993064;28;20023;-68
2022/01/05 02:23:54;;;;;;;2.80;2.50;;;;;;;8.17;61.54;93952.63;4993501;28;20074;-69
2022/01/05 02:26:20;;;;;;;3.30;2.80;;;;;;;8.35;61.30;93972.66;4993357;28;20680;-68
2022/01/05 02:28:46;;;;;;;3.53;2.80;;;;;;;8.80;60.90;93978.25;4992715;28;20353;-70
2022/01/05 02:31:12;;;;;;;3.70;2.97;;;;;;;9.14;62.12;93965.88;4992781;28;20038;-68
2022/01/05 02:33:40;;;;;;;2.13;1.92;;;;;;;8.77;61.58;93902.00;4993250;28;20030;-68
2022/01/05 02:36:08;;;;;;;2.88;2.50;;;;;;;7.74;61.40;93978.13;4993930;28;20069;-68
2022/01/05 02:38:34;;;;;;;2.63;2.38;;;;;;;8.49;62.17;93945.97;4992502;28;20022;-68
2022/01/05 02:41:09;;;;;;;2.85;2.00;;;;;;;8.78;61.85;93967.19;4975027;28;20140;-68
2022/01/05 02:43:35;;;;;;;3.65;2.67;;;;;;;8.17;62.08;93939.38;5052992;23;20503;-66
2022/01/05 02:46:02;;;;;;;3.42;2.55;;;;;;;8.55;62.38;93965.91;5034278;28;20029;-65
2022/01/05 02:48:27;;;;;;;1.90;1.73;;;;;;;7.82;61.86;93960.66;5051306;28;20382;-65
2022/01/05 02:50:57;;;;;;;2.13;1.92;;;;;;;8.25;62.43;93934.06;5033095;28;20025;-65
2022/01/05 02:53:22;;;;;;;2.22;1.83;;;;;;;8.18;62.41;93906.50;5051832;28;20029;-65
2022/01/05 02:55:48;;;;;;;2.78;1.98;;;;;;;8.18;60.73;93917.09;5033973;28;20024;-66
2022/01/05 02:58:13;;;;;;;2.10;1.60;;;;;;;7.93;60.86;93966.38;5051646;28;20025;-65
2022/01/05 03:00:38;;;;;;;1.83;1.70;;;;;;;8.10;62.67;93998.16;5051424;28;20025;-67
2022/01/05 03:03:04;;;;;;;2.60;1.50;;;;;;;7.50;63.01;93919.63;5051443;28;20056;-65
2022/01/05 03:05:29;;;;;;;2.40;2.08;;;;;;;8.30;62.65;93941.06;5051625;28;20513;-66
2022/01/05 03:07:54;;;;;;;2.47;2.17;;;;;;;8.69;61.91;93942.59;5051244;28;20096;-65
2022/01/05 03:10:20;;;;;;;2.35;1.90;;;;;;;8.40;60.86;93980.47;5050257;28;20271;-65
2022/01/05 03:12:45;;;;;;;2.28;1.75;;;;;;;8.60;62.42;93989.59;5033597;28;20025;-65
2022/01/05 03:15:11;;;;;;;1.70;1.55;;;;;;;7.14;63.55;93875.78;5033781;28;20037;-66
2022/01/05 03:17:37;;;;;;;2.05;1.80;;;;;;;8.31;61.60;93951.31;5051137;28;20086;-65
2022/01/05 03:20:03;;;;;;;2.40;1.77;;;;;;;6.61;62.87;93731.56;5050583;28;20029;-65
2022/01/05 03:22:28;;;;;;;1.70;1.60;;;;;;;8.07;62.93;93908.72;5033426;28;20021;-65
2022/01/05 03:24:54;;;;;;;1.80;1.40;;;;;;;7.57;62.45;93837.88;5033683;28;20064;-65
2022/01/05 03:27:19;;;;;;;1.92;1.70;;;;;;;6.98;62.52;93771.59;5051226;28;20079;-66
2022/01/05 03:29:45;;;;;;;2.80;2.10;;;;;;;8.39;62.24;93911.88;5050729;28;20024;-66
2022/01/05 03:32:10;;;;;;;2.22;1.95;;;;;;;9.21;62.12;93981.25;5051272;28;20029;-65
2022/01/05 03:34:37;;;;;;;2.28;1.63;;;;;;;7.90;61.07;93891.03;5050508;28;20501;-65
2022/01/05 03:37:03;;;;;;;1.67;1.58;;;;;;;8.68;61.96;93964.91;5050858;28;20036;-65
2022/01/05 03:39:28;;;;;;;1.80;1.70;;;;;;;7.79;61.28;93884.53;5050508;28;20025;-66
2022/01/05 03:41:54;;;;;;;1.52;1.10;;;;;;;7.45;63.37;93882.75;5050894;28;20360;-66
2022/01/05 03:44:19;;;;;;;1.45;1.30;;;;;;;7.81;63.01;93985.56;5051025;28;20108;-65
2022/01/05 03:46:45;;;;;;;1.63;1.10;;;;;;;6.94;63.80;93877.19;5050941;28;20036;-65
2022/01/05 03:49:10;;;;;;;1.67;1.15;;;;;;;8.36;63.08;93990.16;5049674;28;20399;-65
2022/01/05 03:51:35;;;;;;;5.93;1.25;;;;;;;8.00;63.92;93953.47;5050339;28;20055;-65
2022/01/05 03:54:01;;;;;;;1.20;1.10;;;;;;;6.86;64.51;93900.97;5032700;28;20033;-65
2022/01/05 03:56:26;;;;;;;1.52;1.30;;;;;;;7.22;64.65;93909.38;5032979;28;20028;-66
2022/01/05 03:58:52;;;;;;;1.30;1.20;;;;;;;6.85;64.22;93891.47;5050345;28;20021;-65
2022/01/05 04:01:17;;;;;;;1.92;1.30;;;;;;;6.65;65.54;93935.91;5050231;28;20048;-65
2022/01/05 04:03:43;;;;;;;6.60;1.48;;;;;;;7.91;64.18;93993.19;5050087;28;20040;-65
2022/01/05 04:06:08;;;;;;;1.60;1.48;;;;;;;7.36;65.45;93985.13;5050570;28;20052;-65
2022/01/05 04:08:33;;;;;;;1.55;1.00;;;;;;;7.10;65.72;93987.78;5050175;28;20017;-65
2022/01/05 04:10:59;;;;;;;1.58;1.30;;;;;;;6.58;65.36;93934.81;5050138;28;20108;-66
2022/01/05 04:13:25;;;;;;;0.95;0.88;;;;;;;6.74;65.68;93971.06;5032276;28;20079;-65
2022/01/05 04:15:50;;;;;;;1.48;1.38;;;;;;;6.90;64.26;93856.97;5032753;28;20082;-65
2022/01/05 04:18:15;;;;;;;1.02;0.93;;;;;;;7.15;65.28;93988.41;5049797;28;20029;-65
2022/01/05 04:20:41;;;;;;;1.73;0.95;;;;;;;7.52;64.53;93928.00;5050012;28;20078;-65
2022/01/05 04:23:07;;;;;;;1.88;1.13;;;;;;;8.51;63.03;94008.19;5050064;28;20467;-65
2022/01/05 04:25:33;;;;;;;1.15;1.05;;;;;;;6.65;63.02;93856.66;5050290;28;20104;-65
2022/01/05 04:28:00;;;;;;;1.05;0.95;;;;;;;8.04;63.23;93936.63;5050416;28;20512;-66
2022/01/05 04:30:25;;;;;;;1.52;1.23;;;;;;;8.55;62.71;93990.53;5032455;28;20463;-65
2022/01/05 04:32:51;;;;;;;1.23;0.77;;;;;;;7.51;62.12;94000.53;5032090;28;20032;-65
2022/01/05 04:35:16;;;;;;;0.80;0.80;;;;;;;7.92;62.19;93991.31;5049716;28;20036;-66
2022/01/05 04:37:42;;;;;;;0.82;0.82;;;;;;;7.72;62.49;93979.50;5049582;28;20056;-66
2022/01/05 04:40:10;;;;;;;0.93;0.82;;;;;;;7.44;63.01;93944.69;5049208;28;20029;-65
2022/01/05 04:42:35;;;;;;;1.20;0.80;;;;;;;7.41;62.60;93946.06;5049810;28;20025;-66
2022/01/05 04:45:01;;;;;;;0.57;0.57;;;;;;;6.96;63.67;94004.56;5049932;28;20032;-65
2022/01/05 04:47:27;;;;;;;1.88;0.90;;;;;;;7.95;62.65;93967.66;5032108;28;20021;-65
2022/01/05 04:49:52;;;;;;;2.35;0.77;;;;;;;8.31;61.59;93961.16;5030631;28;20074;-65
2022/01/05 04:52:18;;;;;;;1.00;0.70;;;;;;;7.99;62.36;93920.13;5032015;28;20112;-65
2022/01/05 04:54:43;;;;;;;0.40;0.40;;;;;;;8.44;61.70;93940.84;5049904;28;20650;-65
2022/01/05 04:57:09;;;;;;;0.68;0.63;;;;;;;7.82;61.22;93940.25;5049824;28;20025;-65
2022/01/05 04:59:34;;;;;;;0.40;0.40;;;;;;;7.70;63.11;93979.84;5031329;28;20390;-66
2022/01/05 05:01:59;;;;;;;0.40;0.40;;;;;;;7.77;62.96;93964.25;5049765;28;20017;-65
2022/01/05 05:04:25;;;;;;;0.32;0.32;;;;;;;8.10;62.50;93963.72;5031332;28;20040;-65
2022/01/05 05:06:50;;;;;;;0.20;0.20;;;;;;;7.82;63.06;93976.53;5031752;28;20053;-65
2022/01/05 05:09:16;;;;;;;2.05;0.40;;;;;;;8.31;61.88;93958.50;5048999;28;20591;-66
2022/01/05 05:11:42;;;;;;;0.30;0.30;;;;;;;7.41;62.91;93946.06;5049457;28;20051;-66
2022/01/05 05:14:08;;;;;;;0.47;0.38;;;;;;;7.35;62.58;93994.16;5049504;28;20116;-65
2022/01/05 05:16:34;;;;;;;1.08;0.20;;;;;;;7.24;61.87;93899.25;5049547;28;20021;-65
2022/01/05 05:18:59;;;;;;;0.57;0.50;;;;;;;6.97;63.91;93918.88;5048248;28;20078;-65
2022/01/05 05:21:24;;;;;;;0.30;0.28;;;;;;;7.68;61.64;93939.69;5049068;28;20487;-64
2022/01/05 05:23:50;;;;;;;0.35;0.35;;;;;;;8.24;62.21;93964.28;5031295;28;20045;-64
2022/01/05 05:26:15;;;;;;;0.30;0.30;;;;;;;7.69;61.42;93885.66;5049522;28;20029;-64
2022/01/05 05:28:41;;;;;;;0.43;0.40;;;;;;;8.27;60.57;93984.06;5049112;28;20029;-64
2022/01/05 05:31:06;;;;;;;0.20;0.20;;;;;;;7.91;61.38;93987.13;5048791;28;20064;-64
2022/01/05 05:33:32;;;;;;;0.43;0.30;;;;;;;6.67;63.53;93909.97;5048825;28;20039;-64
2022/01/05 05:35:57;;;;;;;0.85;0.35;;;;;;;7.70;62.82;93944.66;5030802;28;20696;-64
2022/01/05 05:38:23;;;;;;;1.50;0.20;;;;;;;7.01;64.59;93921.66;5048870;28;20031;-64
2022/01/05 05:40:48;;;;;;;0.38;0.35;;;;;;;6.69;64.32;93936.09;5048667;28;20024;-64
2022/01/05 05:43:15;;;;;;;0.40;0.40;;;;;;;6.01;65.21;93866.94;5049100;28;20498;-64
2022/01/05 05:45:40;;;;;;;0.88;0.20;;;;;;;5.81;64.17;93796.22;5031264;28;20555;-66
2022/01/05 05:48:06;;;;;;;1.30;0.28;;;;;;;7.18;63.54;93950.75;5030517;28;20025;-64
2022/01/05 05:50:32;;;;;;;0.30;0.30;;;;;;;6.66;63.56;93884.66;5046228;28;20036;-64
2022/01/05 05:52:58;;;;;;;0.30;0.20;;;;;;;7.58;65.62;94022.03;5052775;28;20521;-65
2022/01/05 05:55:23;;;;;;;0.82;0.22;;;;;;;6.58;64.83;93863.50;5052935;28;20103;-64
2022/01/05 05:57:49;;;;;;;0.20;0.20;;;;;;;6.40;63.16;93838.94;5052880;28;20032;-65
2022/01/05 06:00:15;;;;;;;0.30;0.30;;;;;;;7.57;63.08;94001.94;5052111;28;20028;-64
2022/01/05 06:02:41;;;;;;;0.30;0.30;;;;;;;7.97;63.92;94030.88;5052696;28;20423;-65
2022/01/05 06:05:07;;;;;;;0.20;0.20;;;;;;;7.80;63.38;94007.84;5034353;28;20032;-65
2022/01/05 06:07:32;;;;;;;0.50;0.40;;;;;;;6.94;64.21;93868.47;5052571;28;20043;-66
2022/01/05 06:09:59;;;;;;;0.77;0.30;;;;;;;7.80;63.02;93979.50;5052050;28;20479;-66
2022/01/05 06:12:25;;;;;;;0.28;0.28;;;;;;;7.45;63.42;93985.94;5052404;28;20017;-66
2022/01/05 06:14:50;;;;;;;0.43;0.30;;;;;;;7.44;63.66;93879.31;5052615;28;20025;-65
2022/01/05 06:17:16;;;;;;;0.20;0.20;;;;;;;5.56;65.23;93837.25;5034820;28;20074;-65
2022/01/05 06:19:41;;;;;;;0.10;0.10;;;;;;;7.17;64.50;94002.09;5051239;28;20033;-65
2022/01/05 06:22:06;;;;;;;0.20;0.20;;;;;;;5.88;65.78;93817.66;5052231;28;20430;-66
2022/01/05 06:24:33;;;;;;;0.40;0.40;;;;;;;6.43;64.32;93812.66;5052283;28;20021;-65
2022/01/05 06:26:59;;;;;;;1.15;0.40;;;;;;;6.68;63.19;93774.13;5052375;28;20122;-65
2022/01/05 06:29:24;;;;;;;0.25;0.25;;;;;;;6.63;62.96;93813.91;5051590;28;20482;-65
2022/01/05 06:31:50;;;;;;;0.15;0.15;;;;;;;7.88;63.11;94000.97;5051655;28;20033;-65
2022/01/05 06:34:15;;;;;;;0.30;0.30;;;;;;;7.55;62.43;93912.28;5051564;28;20029;-66
2022/01/05 06:36:41;;;;;;;0.32;0.20;;;;;;;8.03;63.37;93979.28;5052028;28;20145;-65
2022/01/05 06:39:06;;;;;;;0.35;0.20;;;;;;;6.56;63.97;93826.81;5051519;28;20028;-65
2022/01/05 06:41:31;;;;;;;0.40;0.40;;;;;;;6.25;64.85;93922.00;5034236;28;20071;-65
2022/01/05 06:43:57;;;;;;;0.30;0.20;;;;;;;7.69;63.83;94027.78;5052011;28;20028;-65
2022/01/05 06:46:23;;;;;;;0.50;0.30;;;;;;;7.40;64.45;94028.41;5052256;28;20575;-65
2022/01/05 06:48:48;;;;;;;0.47;0.30;;;;;;;6.41;63.08;93798.22;5032868;28;20055;-65
2022/01/05 06:51:14;;;;;;;0.30;0.30;;;;;;;7.91;64.39;94040.84;5051247;28;20100;-65
2022/01/05 06:53:39;;;;;;;0.30;0.30;;;;;;;7.44;65.10;94010.84;5033649;28;20467;-66
2022/01/05 06:56:06;;;;;;;0.30;0.30;;;;;;;7.57;63.91;93978.13;5051824;28;20116;-65
2022/01/05 06:58:31;;;;;;;0.30;0.30;;;;;;;5.98;65.33;93891.28;5051603;28;20061;-65
2022/01/05 07:00:56;;;;;;;0.20;0.20;;;;;;;7.67;64.43;94035.25;5050555;28;20076;-65
2022/01/05 07:03:22;;;;;;;0.40;0.30;;;;;;;7.62;64.23;94030.91;5033738;28;20017;-65
2022/01/05 07:05:48;;;;;;;0.20;0.20;;;;;;;7.17;64.58;94031.19;5050970;28;20082;-64
2022/01/05 07:08:14;;;;;;;0.40;0.40;;;;;;;7.37;64.79;94021.88;5051441;28;20032;-64
2022/01/05 07:10:40;;;;;;;0.55;0.40;;;;;;;7.82;64.53;94034.78;5050999;28;20025;-65
2022/01/05 07:13:07;;;;;;;0.30;0.30;;;;;;;7.05;65.79;94007.19;5051655;28;20116;-65
2022/01/05 07:15:32;;;;;;;0.25;0.20;;;;;;;7.30;65.76;94040.84;5051420;28;20025;-64
2022/01/05 07:17:58;;;;;;;0.32;0.32;;;;;;;6.74;65.08;93947.28;5051607;28;20271;-65
2022/01/05 07:20:24;;;;;;;1.35;0.30;;;;;;;7.14;63.93;93959.63;5049960;28;20561;-65
2022/01/05 07:22:49;;;;;;;0.82;0.30;;;;;;;5.43;66.59;93810.66;5051144;28;20047;-65
2022/01/05 07:25:15;;;;;;;1.23;0.40;;;;;;;5.74;65.97;93809.84;5051419;28;20032;-64
2022/01/05 07:27:40;;;;;;;0.40;0.40;;;;;;;6.79;63.99;93890.88;5033379;28;20076;-65
2022/01/05 07:30:06;;;;;;;0.55;0.50;;;;;;;6.84;63.87;93863.50;5050893;28;20025;-64
2022/01/05 07:32:32;;;;;;;0.43;0.43;;;;;;;7.50;64.21;94013.00;5051363;28;20386;-64
2022/01/05 07:34:57;;;;;;;0.80;0.60;;;;;;;7.68;65.00;94053.50;5050815;28;20028;-67
2022/01/05 07:37:23;;;;;;;0.60;0.50;;;;;;;7.36;64.17;94059.22;5033485;28;20029;-67
2022/01/05 07:39:49;;;;;;;0.50;0.50;;;;;;;7.34;65.12;94064.81;5050657;28;20096;-66
2022/01/05 07:42:14;;;;;;;0.63;0.60;;;;;;;7.18;63.64;94016.88;5050906;28;20115;-66
2022/01/05 07:44:40;;;;;;;0.40;0.40;;;;;;;7.10;64.19;93982.47;5051023;28;20100;-66
2022/01/05 07:47:06;;;;;;;0.60;0.60;;;;;;;7.65;63.64;94038.22;5050923;28;20025;-66
2022/01/05 07:49:32;;;;;;;0.60;0.60;;;;;;;7.40;64.87;94046.94;5049905;28;20576;-67
2022/01/05 07:51:57;;;;;;;0.75;0.45;;;;;;;6.48;67.53;94054.75;5032148;28;20017;-67
2022/01/05 07:54:22;;;;;;;0.50;0.50;;;;;;;6.28;66.83;93983.97;5050625;28;20478;-65
2022/01/05 07:56:48;;;;;;;0.70;0.70;;;;;;;6.55;65.83;93989.03;5050733;28;20021;-64
2022/01/05 07:59:14;;;;;;;0.73;0.60;;;;;;;7.20;65.02;94083.44;5050137;28;20020;-65
2022/01/05 08:01:39;;;;;;;0.20;0.20;;;;;;;5.69;66.89;93950.59;5050740;28;20025;-63
2022/01/05 08:04:05;;;;;;;0.50;0.50;;;;;;;6.93;67.37;94094.28;5050173;28;20025;-62
2022/01/05 08:06:30;;;;;;;0.30;0.30;;;;;;;6.34;68.04;94077.84;5051478;28;20406;-63
2022/01/05 08:08:55;;;;;;;0.50;0.50;;;;;;;6.44;68.72;94088.13;5032089;28;20029;-65
2022/01/05 08:11:21;;;;;;;0.55;0.40;;;;;;;6.52;68.30;94079.50;5050355;28;20020;-67
2022/01/05 08:13:47;;;;;;;0.52;0.40;;;;;;;6.35;67.54;94066.97;5049624;28;20104;-65
2022/01/05 08:16:12;;;;;;;1.20;0.45;;;;;;;6.49;68.43;94083.50;5050659;28;20411;-70
2022/01/05 08:18:38;;;;;;;0.45;0.45;;;;;;;6.52;67.74;94105.91;5050151;28;20056;-68
2022/01/05 08:21:03;;;;;;;0.20;0.20;;;;;;;6.78;67.10;94122.66;5050844;28;20025;-70
2022/01/05 08:23:29;;;;;;;0.25;0.20;;;;;;;6.60;67.62;94109.66;5050037;28;20029;-66
2022/01/05 08:25:54;;;;;;;4.25;0.55;;;;;;;6.21;67.27;94090.81;5050248;28;20044;-67
2022/01/05 08:28:20;;;;;;;0.13;0.13;;;;;;;5.79;69.70;94072.81;5049892;28;20040;-66
2022/01/05 08:30:46;;;;;;;0.98;0.20;;;;;;;5.61;69.26;94109.59;5049589;28;20029;-67
2022/01/05 08:33:15;;;;;;;0.30;0.30;;;;;;;6.20;69.04;94147.34;5032158;28;20451;-68
2022/01/05 08:35:42;;;;;;;0.30;0.30;;;;;;;6.24;69.08;94136.94;5049596;28;20029;-64
2022/01/05 08:38:09;;;;;;;0.82;0.40;;;;;;;6.72;67.72;94187.31;5049522;28;20029;-66
2022/01/05 08:40:37;;;;;;;0.38;0.38;;;;;;;7.21;65.88;94184.72;5031861;28;20025;-66
2022/01/05 08:43:05;;;;;;;0.22;0.22;;;;;;;6.49;67.79;94193.69;5050148;28;20044;-67
2022/01/05 08:45:31;;;;;;;0.50;0.45;;;;;;;6.48;67.49;94189.47;5049918;28;20614;-66
2022/01/05 08:47:59;;;;;;;0.28;0.25;;;;;;;6.70;66.86;94202.66;5049962;28;20025;-66
2022/01/05 08:50:29;;;;;;;0.10;0.10;;;;;;;6.50;66.82;94150.34;5048457;28;20032;-65
2022/01/05 08:52:57;;;;;;;0.20;0.20;;;;;;;6.11;66.34;94143.88;5048396;28;20113;-64
2022/01/05 08:55:27;;;;;;;0.10;0.10;;;;;;;5.87;68.27;94154.66;5049589;28;20025;-64
2022/01/05 08:57:52;;;;;;;0.17;0.17;;;;;;;5.85;67.88;94167.38;5049692;28;20052;-65
2022/01/05 09:00:18;;;;;;;0.20;0.20;;;;;;;5.60;68.31;94131.78;5048764;28;20067;-67
2022/01/05 09:02:45;;;;;;;0.47;0.17;;;;;;;5.73;68.02;94162.63;5049610;28;20473;-65
2022/01/05 09:05:11;;;;;;;0.43;0.43;;;;;;;5.96;68.39;94162.69;5049030;28;20039;-65
2022/01/05 09:07:37;;;;;;;0.45;0.15;;;;;;;5.08;68.55;94123.34;5030863;28;20430;-65
2022/01/05 09:10:04;;;;;;;0.50;0.50;;;;;;;5.24;69.80;94142.28;5048380;28;20051;-64
2022/01/05 09:12:30;;;;;;;0.88;0.40;;;;;;;6.16;68.64;94251.22;5049699;28;20033;-64
2022/01/05 09:14:56;;;;;;;0.40;0.30;;;;;;;4.90;68.68;94209.31;5049198;28;20037;-64
2022/01/05 09:17:22;;;;;;;0.47;0.40;;;;;;;5.41;69.36;94212.88;5049399;28;20047;-65
2022/01/05 09:19:47;;;;;;;0.30;0.30;;;;;;;5.42;69.21;94228.41;5047920;28;20046;-64
2022/01/05 09:22:12;;;;;;;0.82;0.70;;;;;;;5.47;68.50;94225.66;5048804;28;20037;-66
2022/01/05 09:24:40;;;;;;;0.47;0.38;;;;;;;5.44;70.07;94299.34;5049179;28;20021;-65
2022/01/05 09:27:06;;;;;;;1.52;0.90;;;;;;;5.57;67.46;94232.59;5049234;28;20106;-65
2022/01/05 09:29:33;;;;;;;1.92;0.80;;;;;;;6.03;67.08;94300.31;5048582;28;20039;-64
2022/01/05 09:32:05;;;;;;;2.35;1.67;;;;;;;5.53;67.25;94218.47;5049157;28;20025;-64
2022/01/05 09:34:31;;;;;;;1.77;1.67;;;;;;;6.17;67.26;94253.56;5048722;28;20071;-64
2022/01/05 09:37:02;;;;;;;1.50;1.10;;;;;;;5.52;67.85;94319.75;5049570;28;20026;-64
2022/01/05 09:42:12;;;;;;;1.60;1.50;;;;;;;5.23;68.06;94341.09;5049111;28;20401;-63
2022/01/05 09:44:42;;;;;;;4.95;1.60;;;;;;;5.09;66.55;94348.97;5049071;28;20025;-64
2022/01/05 09:47:21;;;;;;;2.47;2.28;;;;;;;5.22;67.58;94279.69;5031456;28;20021;-64
2022/01/05 09:49:59;;;;;;;2.25;2.05;;;;;;;5.08;66.11;94270.97;5047674;28;20021;-64
2022/01/05 09:52:25;;;;;;;3.13;2.53;;;;;;;4.37;66.60;94240.50;5048787;28;20037;-64
2022/01/05 09:54:51;;;;;;;2.28;2.15;;;;;;;4.31;66.01;94270.59;5049134;28;20072;-65
2022/01/05 09:57:19;;;;;;;2.75;2.55;;;;;;;4.47;64.79;94250.09;5031163;28;20071;-66
2022/01/05 09:59:45;;;;;;;2.80;2.58;;;;;;;4.68;66.27;94333.78;5048282;28;20032;-64
2022/01/05 10:02:14;;;;;;;3.40;2.40;;;;;;;5.11;66.56;94364.47;5048690;28;20037;-64
2022/01/05 10:04:40;;;;;;;3.05;2.67;;;;;;;4.31;65.52;94217.94;5048500;28;20024;-65
2022/01/05 10:07:07;;;;;;;1.75;1.65;;;;;;;5.12;66.14;94372.13;5048275;28;20104;-65
2022/01/05 10:09:35;;;;;;;1.58;1.48;;;;;;;4.24;65.69;94320.94;5047789;28;20028;-63
2022/01/05 10:12:03;;;;;;;2.13;1.92;;;;;;;4.63;65.01;94354.13;5048822;28;20032;-63
2022/01/05 10:14:29;;;;;;;2.80;2.03;;;;;;;5.24;63.12;94349.78;5048624;28;20024;-65
2022/01/05 10:17:12;;;;;;;2.75;2.33;;;;;;;5.55;63.46;94389.63;5031007;28;20021;-65
2022/01/05 10:19:40;;;;;;;1.95;1.75;;;;;;;5.10;64.38;94395.34;5047194;28;20053;-61
2022/01/05 10:22:32;;;;;;;3.05;1.52;;;;;;;4.49;63.81;94338.25;5048519;28;20288;-65
2022/01/05 10:24:58;;;;;;;3.45;2.40;;;;;;;3.57;63.63;94170.31;5048675;28;20394;-64
2022/01/05 10:27:25;;;;;;;2.80;2.53;;;;;;;4.18;63.12;94207.06;5048598;28;20025;-64
2022/01/05 10:29:58;;;;;;;1.73;1.60;;;;;;;4.54;64.35;94404.03;5029997;28;20032;-63
2022/01/05 10:32:26;;;;;;;5.47;3.13;;;;;;;5.74;62.57;94403.53;5030599;28;20021;-66
2022/01/05 10:35:05;;;;;;;4.80;3.00;;;;;;;5.22;61.90;94398.31;5047899;28;20052;-64
2022/01/05 10:37:32;;;;;;;2.53;2.10;;;;;;;5.46;62.45;94400.03;5033013;28;20064;-64
2022/01/05 10:40:06;;;;;;;6.30;2.50;;;;;;;5.83;61.07;94411.53;5033348;28;20017;-64
2022/01/05 10:42:32;;;;;;;2.88;2.47;;;;;;;6.27;59.15;94410.25;5051967;28;20184;-65
2022/01/05 10:44:58;;;;;;;2.35;1.90;;;;;;;5.23;61.17;94404.38;5052262;28;20538;-65
2022/01/05 10:47:25;;;;;;;2.88;2.67;;;;;;;5.93;59.22;94406.09;5052156;28;20657;-63
2022/01/05 10:49:50;;;;;;;3.88;2.20;;;;;;;5.37;60.47;94412.31;5032914;28;20112;-64
2022/01/05 10:52:22;;;;;;;4.63;3.72;;;;;;;6.82;58.91;94415.47;5051621;28;20108;-64
2022/01/05 10:54:48;;;;;;;4.75;2.88;;;;;;;5.76;60.39;94395.31;5051806;28;20025;-64
2022/01/05 10:57:14;;;;;;;2.88;2.00;;;;;;;5.36;59.97;94423.94;5051868;28;20037;-66
2022/01/05 10:59:45;;;;;;;2.20;1.92;;;;;;;5.43;60.24;94419.09;5033046;28;20502;-63
2022/01/05 11:02:30;;;;;;;3.17;2.07;;;;;;;5.46;60.18;94429.84;5051958;28;20135;-63
2022/01/05 11:05:12;;;;;;;3.55;1.75;;;;;;;4.89;59.95;94397.50;5033503;28;20647;-63
2022/01/05 11:07:39;;;;;;;;;;;;;;;5.11;60.88;94422.47;5051958;28;20131;-64
2022/01/05 11:10:10;;;;;;;3.83;1.90;;;;;;;4.73;61.18;94434.88;5050639;28;19913;-63
2022/01/05 11:12:40;;;;;;;2.67;2.00;;;;;;;5.70;60.16;94429.72;5051625;28;20174;-63
2022/01/05 11:15:27;;;;;;;1.90;1.63;;;;;;;5.61;59.47;94447.28;5051407;28;20033;-64
2022/01/05 11:18:12;;;;;;;1.35;0.98;;;;;;;4.62;62.58;94458.72;5051977;28;20043;-63
2022/01/05 11:20:39;;;;;;;2.80;1.70;;;;;;;5.25;60.85;94454.19;5050417;28;20036;-63
2022/01/05 11:23:06;;;;;;;1.50;1.40;;;;;;;4.89;61.17;94478.41;5027653;28;20378;-63
2022/01/05 11:25:34;;;;;;;3.20;2.40;;;;;;;4.88;61.23;94476.84;5051161;28;20033;-64
2022/01/05 11:28:00;;;;;;;4.50;2.03;;;;;;;4.72;62.34;94467.56;5033330;28;20063;-64
2022/01/05 11:30:26;;;;;;;1.85;1.75;;;;;;;4.66;63.10;94501.88;5032631;28;20056;-63
2022/01/05 11:32:53;;;;;;;3.33;1.80;;;;;;;4.98;62.00;94460.88;5051096;28;20108;-64
2022/01/05 11:35:18;;;;;;;3.58;1.52;;;;;;;4.94;61.08;94417.72;5050832;28;20032;-63
2022/01/05 11:37:46;;;;;;;3.72;1.40;;;;;;;4.73;62.27;94490.22;5050706;28;20699;-63
2022/01/05 11:40:13;;;;;;;2.83;1.63;;;;;;;5.64;59.96;94503.97;5050248;28;20052;-64